createdAt,value
2023-04-02T00:00:14.060Z,3.67
2023-04-02T00:01:14.035Z,3.67
2023-04-02T00:02:14.106Z,3.65
2023-04-02T00:03:14.060Z,3.65
2023-04-02T00:04:14.141Z,3.62
2023-04-02T00:05:14.001Z,3.65
2023-04-02T00:06:13.989Z,3.60
2023-04-02T00:07:13.976Z,3.62
2023-04-02T00:08:13.976Z,3.58
2023-04-02T00:09:13.983Z,3.61
2023-04-02T00:10:13.976Z,3.60
2023-04-02T00:11:13.933Z,3.60
2023-04-02T00:12:13.938Z,3.61
2023-04-02T00:13:13.908Z,3.61
2023-04-02T00:14:13.951Z,3.61
2023-04-02T00:15:13.939Z,3.58
2023-04-02T00:16:13.907Z,3.60
2023-04-02T00:17:13.906Z,3.58
2023-04-02T00:18:13.897Z,3.60
2023-04-02T00:19:14.342Z,3.61
2023-04-02T00:20:13.863Z,3.60
2023-04-02T00:21:13.848Z,3.62
2023-04-02T00:22:15.130Z,3.60
2023-04-02T00:23:13.816Z,3.60
2023-04-02T00:24:13.804Z,3.62
2023-04-02T00:25:13.828Z,3.61
2023-04-02T00:26:13.793Z,3.61
2023-04-02T00:27:13.775Z,3.58
2023-04-02T00:28:13.798Z,3.60
2023-04-02T00:29:13.786Z,3.57
2023-04-02T00:30:13.770Z,3.53
2023-04-02T00:31:13.753Z,3.52
2023-04-02T00:32:13.820Z,3.53
2023-04-02T00:33:13.716Z,3.53
2023-04-02T00:34:13.729Z,3.54
2023-04-02T00:35:13.774Z,3.47
2023-04-02T00:36:13.713Z,3.46
2023-04-02T00:37:13.674Z,3.43
2023-04-02T00:38:13.674Z,3.39
2023-04-02T00:39:13.681Z,3.39
2023-04-02T00:40:13.686Z,3.36
2023-04-02T00:41:13.628Z,3.36
2023-04-02T00:42:13.628Z,3.36
2023-04-02T00:43:13.617Z,3.33
2023-04-02T00:44:13.611Z,3.33
2023-04-02T00:45:13.602Z,3.33
2023-04-02T00:46:13.596Z,3.33
2023-04-02T00:47:13.578Z,3.33
2023-04-02T00:48:13.561Z,3.31
2023-04-02T00:49:13.558Z,3.30
2023-04-02T00:50:13.552Z,3.31
2023-04-02T00:51:13.532Z,3.31
2023-04-02T00:52:13.521Z,3.31
2023-04-02T00:53:13.512Z,3.28
2023-04-02T00:54:13.517Z,3.28
2023-04-02T00:55:13.492Z,3.27
2023-04-02T00:56:13.488Z,3.28
2023-04-02T00:57:13.489Z,3.24
2023-04-02T00:58:13.469Z,3.25
2023-04-02T00:59:13.476Z,3.24
2023-04-02T01:00:13.441Z,3.21
2023-04-02T01:01:13.476Z,3.23
2023-04-02T01:02:13.427Z,3.23
2023-04-02T01:03:13.502Z,3.24
2023-04-02T01:04:13.433Z,3.23
2023-04-02T01:05:13.385Z,3.21
2023-04-02T01:06:13.387Z,3.20
2023-04-02T01:07:13.373Z,3.21
2023-04-02T01:08:13.365Z,3.18
2023-04-02T01:09:13.350Z,3.18
2023-04-02T01:10:13.373Z,3.18
2023-04-02T01:11:13.329Z,3.21
2023-04-02T01:12:13.323Z,3.20
2023-04-02T01:13:13.303Z,3.21
2023-04-02T01:14:13.300Z,3.20
2023-04-02T01:15:13.318Z,3.18
2023-04-02T01:16:13.315Z,3.18
2023-04-02T01:17:13.267Z,3.18
2023-04-02T01:18:13.276Z,3.20
2023-04-02T01:19:13.240Z,3.18
2023-04-02T01:20:13.248Z,3.16
2023-04-02T01:21:13.224Z,3.15
2023-04-02T01:22:13.221Z,3.15
2023-04-02T01:23:13.227Z,3.13
2023-04-02T01:24:13.205Z,3.09
2023-04-02T01:25:13.202Z,3.07
2023-04-02T01:26:13.185Z,3.03
2023-04-02T01:27:13.157Z,3.05
2023-04-02T01:28:13.157Z,3.03
2023-04-02T01:29:13.134Z,2.94
2023-04-02T01:30:13.162Z,2.92
2023-04-02T01:31:13.155Z,2.91
2023-04-02T01:32:13.117Z,2.91
2023-04-02T01:33:13.108Z,2.88
2023-04-02T01:34:13.099Z,2.87
2023-04-02T01:35:13.100Z,2.84
2023-04-02T01:36:13.099Z,2.77
2023-04-02T01:37:13.061Z,2.77
2023-04-02T01:38:13.055Z,2.74
2023-04-02T01:39:13.036Z,2.71
2023-04-02T01:40:13.062Z,2.71
2023-04-02T01:41:13.013Z,2.67
2023-04-02T01:42:13.011Z,2.66
2023-04-02T01:43:13.008Z,2.64
2023-04-02T01:44:13.029Z,2.64
2023-04-02T01:45:13.021Z,2.61
2023-04-02T01:46:13.021Z,2.58
2023-04-02T01:47:12.952Z,2.56
2023-04-02T01:48:12.944Z,2.56
2023-04-02T01:49:12.945Z,2.56
2023-04-02T01:50:12.958Z,2.53
2023-04-02T01:51:12.910Z,2.55
2023-04-02T01:52:12.909Z,2.58
2023-04-02T01:53:12.918Z,2.58
2023-04-02T01:54:12.894Z,2.56
2023-04-02T01:55:12.882Z,2.55
2023-04-02T01:56:12.869Z,2.53
2023-04-02T01:57:12.882Z,2.53
2023-04-02T01:58:12.876Z,2.51
2023-04-02T01:59:12.825Z,2.45
2023-04-02T02:00:12.847Z,2.44
2023-04-02T02:01:12.852Z,2.37
2023-04-02T02:02:12.819Z,2.38
2023-04-02T02:03:12.858Z,2.38
2023-04-02T02:04:12.780Z,2.37
2023-04-02T02:05:12.806Z,2.35
2023-04-02T02:06:12.757Z,2.34
2023-04-02T02:07:12.742Z,2.33
2023-04-02T02:08:12.754Z,2.37
2023-04-02T02:09:12.719Z,2.34
2023-04-02T02:10:12.732Z,2.33
2023-04-02T02:11:12.700Z,2.35
2023-04-02T02:12:12.693Z,2.34
2023-04-02T02:13:12.682Z,2.31
2023-04-02T02:14:12.685Z,2.33
2023-04-02T02:15:12.687Z,2.34
2023-04-02T02:16:12.694Z,2.33
2023-04-02T02:17:12.641Z,2.30
2023-04-02T02:18:12.638Z,2.28
2023-04-02T02:19:12.851Z,2.31
2023-04-02T02:20:12.665Z,2.28
2023-04-02T02:21:12.599Z,2.30
2023-04-02T02:22:12.607Z,2.28
2023-04-02T02:23:12.603Z,2.31
2023-04-02T02:24:12.585Z,2.22
2023-04-02T02:25:12.571Z,2.26
2023-04-02T02:26:12.571Z,2.26
2023-04-02T02:27:12.552Z,2.28
2023-04-02T02:28:12.556Z,2.28
2023-04-02T02:29:12.519Z,2.26
2023-04-02T02:30:12.518Z,2.30
2023-04-02T02:31:12.499Z,2.31
2023-04-02T02:32:12.526Z,2.30
2023-04-02T02:33:12.507Z,2.30
2023-04-02T02:34:12.470Z,2.27
2023-04-02T02:35:12.476Z,2.30
2023-04-02T02:36:12.484Z,2.28
2023-04-02T02:37:12.466Z,2.28
2023-04-02T02:38:12.433Z,2.27
2023-04-02T02:39:12.428Z,2.23
2023-04-02T02:40:12.461Z,2.26
2023-04-02T02:41:12.395Z,2.23
2023-04-02T02:42:12.387Z,2.23
2023-04-02T02:43:12.382Z,2.23
2023-04-02T02:44:12.397Z,2.23
2023-04-02T02:45:12.377Z,2.17
2023-04-02T02:46:12.378Z,2.20
2023-04-02T02:47:12.343Z,2.16
2023-04-02T02:48:12.336Z,2.19
2023-04-02T02:49:12.318Z,2.19
2023-04-02T02:50:12.345Z,2.16
2023-04-02T02:51:14.518Z,2.13
2023-04-02T02:52:12.289Z,2.13
2023-04-02T02:53:12.283Z,2.13
2023-04-02T02:54:12.263Z,2.16
2023-04-02T02:55:12.267Z,2.19
2023-04-02T02:56:12.241Z,2.13
2023-04-02T02:57:12.290Z,2.12
2023-04-02T02:58:12.224Z,2.09
2023-04-02T02:59:12.221Z,2.06
2023-04-02T03:00:12.222Z,2.06
2023-04-02T03:01:12.243Z,2.02
2023-04-02T03:02:12.206Z,1.99
2023-04-02T03:03:12.301Z,1.99
2023-04-02T03:04:12.199Z,1.98
2023-04-02T03:05:12.159Z,1.99
2023-04-02T03:06:12.149Z,1.98
2023-04-02T03:07:12.125Z,1.97
2023-04-02T03:08:12.133Z,1.94
2023-04-02T03:09:12.110Z,1.94
2023-04-02T03:10:12.129Z,1.91
2023-04-02T03:11:12.082Z,1.91
2023-04-02T03:12:12.219Z,1.91
2023-04-02T03:13:12.066Z,1.90
2023-04-02T03:14:12.100Z,1.90
2023-04-02T03:15:12.054Z,1.94
2023-04-02T03:16:12.106Z,1.90
2023-04-02T03:17:12.020Z,1.89
2023-04-02T03:18:12.059Z,1.89
2023-04-02T03:19:12.007Z,1.82
2023-04-02T03:20:12.021Z,1.85
2023-04-02T03:21:11.982Z,1.85
2023-04-02T03:22:11.979Z,1.85
2023-04-02T03:23:11.959Z,1.85
2023-04-02T03:24:11.963Z,1.83
2023-04-02T03:25:11.966Z,1.85
2023-04-02T03:26:11.951Z,1.83
2023-04-02T03:27:11.929Z,1.85
2023-04-02T03:28:11.953Z,1.82
2023-04-02T03:29:11.914Z,1.80
2023-04-02T03:30:11.909Z,1.82
2023-04-02T03:31:11.910Z,1.82
2023-04-02T03:32:11.886Z,1.85
2023-04-02T03:33:11.868Z,1.82
2023-04-02T03:34:11.868Z,1.82
2023-04-02T03:35:11.870Z,1.79
2023-04-02T03:36:11.892Z,1.79
2023-04-02T03:37:11.829Z,1.80
2023-04-02T03:38:11.820Z,1.80
2023-04-02T03:39:11.815Z,1.76
2023-04-02T03:40:11.804Z,1.76
2023-04-02T03:41:11.796Z,1.76
2023-04-02T03:42:11.779Z,1.75
2023-04-02T03:43:11.762Z,1.72
2023-04-02T03:44:11.754Z,1.73
2023-04-02T03:45:11.763Z,1.73
2023-04-02T03:46:11.746Z,1.75
2023-04-02T03:47:11.722Z,1.72
2023-04-02T03:48:11.720Z,1.73
2023-04-02T03:49:11.698Z,1.72
2023-04-02T03:50:11.719Z,1.72
2023-04-02T03:51:11.699Z,1.72
2023-04-02T03:52:11.815Z,1.69
2023-04-02T03:53:11.667Z,1.69
2023-04-02T03:54:11.673Z,1.69
2023-04-02T03:55:11.673Z,1.65
2023-04-02T03:56:11.649Z,1.68
2023-04-02T03:57:11.685Z,1.69
2023-04-02T03:58:11.631Z,1.68
2023-04-02T03:59:11.598Z,1.68
2023-04-02T04:00:11.606Z,1.71
2023-04-02T04:01:11.580Z,1.65
2023-04-02T04:02:11.613Z,1.68
2023-04-02T04:03:11.659Z,1.68
2023-04-02T04:04:11.597Z,1.68
2023-04-02T04:05:11.553Z,1.65
2023-04-02T04:06:11.544Z,1.65
2023-04-02T04:07:11.516Z,1.64
2023-04-02T04:08:11.521Z,1.64
2023-04-02T04:09:11.500Z,1.69
2023-04-02T04:10:11.515Z,1.65
2023-04-02T04:11:11.521Z,1.65
2023-04-02T04:12:11.475Z,1.64
2023-04-02T04:13:11.487Z,1.65
2023-04-02T04:14:11.451Z,1.61
2023-04-02T04:15:11.464Z,1.62
2023-04-02T04:16:11.481Z,1.62
2023-04-02T04:17:11.428Z,1.62
2023-04-02T04:18:11.407Z,1.62
2023-04-02T04:19:11.402Z,1.60
2023-04-02T04:20:11.416Z,1.61
2023-04-02T04:21:11.380Z,1.61
2023-04-02T04:22:11.383Z,1.60
2023-04-02T04:23:11.317Z,1.60
2023-04-02T04:24:11.336Z,1.58
2023-04-02T04:25:11.339Z,1.57
2023-04-02T04:26:11.339Z,1.58
2023-04-02T04:27:11.310Z,1.58
2023-04-02T04:28:11.254Z,1.60
2023-04-02T04:29:11.255Z,1.60
2023-04-02T04:30:11.297Z,1.58
2023-04-02T04:31:11.264Z,1.61
2023-04-02T04:32:11.264Z,1.55
2023-04-02T04:33:11.266Z,1.58
2023-04-02T04:34:11.256Z,1.58
2023-04-02T04:35:11.201Z,1.57
2023-04-02T04:36:11.214Z,1.57
2023-04-02T04:37:11.195Z,1.55
2023-04-02T04:38:11.149Z,1.57
2023-04-02T04:39:11.153Z,1.57
2023-04-02T04:40:11.145Z,1.57
2023-04-02T04:41:11.145Z,1.55
2023-04-02T04:42:11.129Z,1.55
2023-04-02T04:43:11.117Z,1.52
2023-04-02T04:44:11.094Z,1.51
2023-04-02T04:45:11.085Z,1.54
2023-04-02T04:46:11.111Z,1.52
2023-04-02T04:47:11.080Z,1.51
2023-04-02T04:48:11.065Z,1.52
2023-04-02T04:49:11.050Z,1.51
2023-04-02T04:50:11.036Z,1.52
2023-04-02T04:51:11.039Z,1.54
2023-04-02T04:52:11.023Z,1.54
2023-04-02T04:53:11.004Z,1.52
2023-04-02T04:54:11.000Z,1.54
2023-04-02T04:55:10.984Z,1.52
2023-04-02T04:56:18.504Z,1.51
2023-04-02T04:57:10.998Z,1.52
2023-04-02T04:58:10.947Z,1.52
2023-04-02T04:59:10.948Z,1.50
2023-04-02T05:00:10.939Z,1.52
2023-04-02T05:01:10.976Z,1.52
2023-04-02T05:02:10.910Z,1.54
2023-04-02T05:03:10.908Z,1.55
2023-04-02T05:04:10.900Z,1.52
2023-04-02T05:05:10.888Z,1.54
2023-04-02T05:06:10.887Z,1.55
2023-04-02T05:07:10.873Z,1.55
2023-04-02T05:08:10.851Z,1.54
2023-04-02T05:09:10.846Z,1.55
2023-04-02T05:10:10.833Z,1.55
2023-04-02T05:11:10.841Z,1.55
2023-04-02T05:12:10.820Z,1.52
2023-04-02T05:13:10.807Z,1.55
2023-04-02T05:14:10.790Z,1.54
2023-04-02T05:15:10.798Z,1.58
2023-04-02T05:16:10.848Z,1.57
2023-04-02T05:17:10.769Z,1.55
2023-04-02T05:18:10.765Z,1.57
2023-04-02T05:19:10.748Z,1.58
2023-04-02T05:20:10.740Z,1.58
2023-04-02T05:21:10.757Z,1.57
2023-04-02T05:22:10.732Z,1.57
2023-04-02T05:23:10.734Z,1.57
2023-04-02T05:24:10.699Z,1.58
2023-04-02T05:25:10.697Z,1.58
2023-04-02T05:26:10.689Z,1.57
2023-04-02T05:27:10.670Z,1.55
2023-04-02T05:28:10.674Z,1.58
2023-04-02T05:29:10.660Z,1.55
2023-04-02T05:30:10.651Z,1.58
2023-04-02T05:31:10.744Z,1.60
2023-04-02T05:32:10.611Z,1.57
2023-04-02T05:33:10.677Z,1.61
2023-04-02T05:34:10.612Z,1.58
2023-04-02T05:35:10.589Z,1.60
2023-04-02T05:36:10.645Z,1.57
2023-04-02T05:37:10.591Z,1.58
2023-04-02T05:38:10.560Z,1.60
2023-04-02T05:39:10.555Z,1.61
2023-04-02T05:40:10.530Z,1.60
2023-04-02T05:41:10.553Z,1.61
2023-04-02T05:42:10.544Z,1.60
2023-04-02T05:43:10.527Z,1.60
2023-04-02T05:44:10.491Z,1.58
2023-04-02T05:45:10.504Z,1.60
2023-04-02T05:46:10.507Z,1.61
2023-04-02T05:47:10.512Z,1.62
2023-04-02T05:48:10.457Z,1.64
2023-04-02T05:49:10.464Z,1.62
2023-04-02T05:50:10.438Z,1.62
2023-04-02T05:51:10.460Z,1.64
2023-04-02T05:52:10.413Z,1.64
2023-04-02T05:53:10.405Z,1.64
2023-04-02T05:54:10.406Z,1.64
2023-04-02T05:55:10.405Z,1.61
2023-04-02T05:56:10.408Z,1.62
2023-04-02T05:57:10.388Z,1.64
2023-04-02T05:59:10.359Z,1.64
2023-04-02T06:00:10.336Z,1.68
2023-04-02T06:01:10.357Z,1.68
2023-04-02T06:02:10.349Z,1.69
2023-04-02T06:03:10.414Z,1.69
2023-04-02T06:04:10.368Z,1.68
2023-04-02T06:05:10.285Z,1.69
2023-04-02T06:06:10.295Z,1.72
2023-04-02T06:07:10.268Z,1.69
2023-04-02T06:08:10.285Z,1.73
2023-04-02T06:09:10.242Z,1.73
2023-04-02T06:10:10.228Z,1.75
2023-04-02T06:11:10.244Z,1.73
2023-04-02T06:12:10.217Z,1.75
2023-04-02T06:13:10.220Z,1.73
2023-04-02T06:14:10.195Z,1.75
2023-04-02T06:15:10.188Z,1.78
2023-04-02T06:16:10.210Z,1.82
2023-04-02T06:17:10.158Z,1.83
2023-04-02T06:18:10.202Z,1.80
2023-04-02T06:19:10.153Z,1.83
2023-04-02T06:20:10.149Z,1.85
2023-04-02T06:21:10.147Z,1.89
2023-04-02T06:22:10.105Z,1.89
2023-04-02T06:23:10.130Z,1.90
2023-04-02T06:24:10.105Z,1.94
2023-04-02T06:25:10.083Z,1.97
2023-04-02T06:26:10.064Z,1.93
2023-04-02T06:27:10.067Z,1.97
2023-04-02T06:28:10.093Z,1.97
2023-04-02T06:29:10.041Z,2.02
2023-04-02T06:30:10.049Z,2.01
2023-04-02T06:31:10.100Z,2.04
2023-04-02T06:32:10.023Z,2.06
2023-04-02T06:33:10.039Z,2.08
2023-04-02T06:34:09.999Z,2.08
2023-04-02T06:35:09.981Z,2.04
2023-04-02T06:36:09.995Z,2.12
2023-04-02T06:37:09.984Z,2.13
2023-04-02T06:38:09.961Z,2.10
2023-04-02T06:39:09.935Z,2.16
2023-04-02T06:40:09.930Z,2.10
2023-04-02T06:41:09.923Z,2.13
2023-04-02T06:42:09.913Z,2.15
2023-04-02T06:43:09.961Z,2.17
2023-04-02T06:44:09.905Z,2.22
2023-04-02T06:45:09.884Z,2.17
2023-04-02T06:46:09.941Z,2.17
2023-04-02T06:47:09.853Z,2.19
2023-04-02T06:48:09.928Z,2.27
2023-04-02T06:49:09.853Z,2.30
2023-04-02T06:50:09.859Z,2.37
2023-04-02T06:51:09.834Z,2.38
2023-04-02T06:52:09.802Z,2.41
2023-04-02T06:53:09.813Z,2.41
2023-04-02T06:54:09.789Z,2.34
2023-04-02T06:55:09.837Z,2.30
2023-04-02T06:56:09.798Z,2.37
2023-04-02T06:57:09.818Z,2.45
2023-04-02T06:58:09.752Z,2.52
2023-04-02T06:59:09.744Z,2.51
2023-04-02T07:00:09.734Z,2.41
2023-04-02T07:01:09.808Z,2.48
2023-04-02T07:02:09.703Z,2.48
2023-04-02T07:03:09.764Z,2.56
2023-04-02T07:04:09.695Z,2.45
2023-04-02T07:05:09.745Z,2.61
2023-04-02T07:06:09.671Z,2.46
2023-04-02T07:07:09.688Z,2.48
2023-04-02T07:08:09.646Z,2.45
2023-04-02T07:09:09.632Z,2.51
2023-04-02T07:10:09.648Z,2.61
2023-04-02T07:11:09.612Z,2.53
2023-04-02T07:12:09.628Z,2.45
2023-04-02T07:13:09.591Z,2.52
2023-04-02T07:14:09.573Z,2.55
2023-04-02T07:15:09.578Z,2.63
2023-04-02T07:16:09.620Z,2.59
2023-04-02T07:17:09.581Z,2.61
2023-04-02T07:18:09.622Z,2.66
2023-04-02T07:19:09.545Z,2.87
2023-04-02T07:20:09.551Z,2.91
2023-04-02T07:21:09.514Z,2.88
2023-04-02T07:22:10.536Z,2.95
2023-04-02T07:23:09.489Z,2.95
2023-04-02T07:24:09.470Z,3.06
2023-04-02T07:25:09.490Z,2.98
2023-04-02T07:26:09.460Z,3.12
2023-04-02T07:27:09.456Z,3.27
2023-04-02T07:28:09.422Z,3.10
2023-04-02T07:29:09.437Z,3.12
2023-04-02T07:30:09.424Z,2.76
2023-04-02T07:31:09.479Z,2.81
2023-04-02T07:32:09.433Z,2.97
2023-04-02T07:33:09.419Z,3.12
2023-04-02T07:34:09.367Z,3.31
2023-04-02T07:35:09.358Z,3.18
2023-04-02T07:36:09.389Z,2.91
2023-04-02T07:37:09.367Z,3.02
2023-04-02T07:38:09.340Z,2.95
2023-04-02T07:39:09.336Z,3.10
2023-04-02T07:40:09.303Z,3.18
2023-04-02T07:41:09.298Z,3.30
2023-04-02T07:42:09.309Z,3.18
2023-04-02T07:43:09.287Z,3.31
2023-04-02T07:44:09.296Z,3.36
2023-04-02T07:45:09.258Z,3.46
2023-04-02T07:46:09.296Z,3.30
2023-04-02T07:47:09.265Z,3.27
2023-04-02T07:48:09.265Z,3.33
2023-04-02T07:49:09.217Z,3.36
2023-04-02T07:50:09.214Z,3.31
2023-04-02T07:51:09.228Z,3.46
2023-04-02T07:52:09.206Z,3.53
2023-04-02T07:53:09.177Z,3.65
2023-04-02T07:54:09.203Z,4.03
2023-04-02T07:55:09.154Z,4.26
2023-04-02T07:56:09.163Z,5.22
2023-04-02T07:57:09.152Z,5.50
2023-04-02T07:58:09.128Z,5.23
2023-04-02T07:59:09.180Z,5.09
2023-04-02T08:00:09.093Z,5.10
2023-04-02T08:01:09.089Z,4.54
2023-04-02T08:02:15.224Z,3.78
2023-04-02T08:03:09.113Z,3.31
2023-04-02T08:04:09.083Z,3.21
2023-04-02T08:05:09.664Z,3.12
2023-04-02T08:06:09.034Z,3.05
2023-04-02T08:07:09.050Z,2.91
2023-04-02T08:08:09.013Z,2.79
2023-04-02T08:09:09.041Z,2.76
2023-04-02T08:10:08.997Z,2.87
2023-04-02T08:11:08.995Z,2.92
2023-04-02T08:12:08.994Z,2.98
2023-04-02T08:13:08.969Z,2.92
2023-04-02T08:14:08.962Z,2.92
2023-04-02T08:15:08.957Z,2.94
2023-04-02T08:16:08.953Z,2.95
2023-04-02T08:17:08.954Z,3.07
2023-04-02T08:18:08.955Z,3.15
2023-04-02T08:19:08.902Z,3.06
2023-04-02T08:20:08.892Z,3.12
2023-04-02T08:21:08.892Z,3.15
2023-04-02T08:22:08.901Z,3.07
2023-04-02T08:23:08.872Z,3.20
2023-04-02T08:24:08.861Z,3.27
2023-04-02T08:25:08.842Z,3.30
2023-04-02T08:26:08.829Z,3.30
2023-04-02T08:27:08.877Z,3.13
2023-04-02T08:28:08.842Z,3.12
2023-04-02T08:29:08.801Z,3.18
2023-04-02T08:30:08.831Z,3.16
2023-04-02T08:31:08.829Z,3.03
2023-04-02T08:32:08.791Z,3.12
2023-04-02T08:33:08.808Z,3.27
2023-04-02T08:34:08.750Z,3.15
2023-04-02T08:35:08.754Z,3.33
2023-04-02T08:36:08.750Z,3.34
2023-04-02T08:37:08.725Z,3.31
2023-04-02T08:38:08.707Z,3.20
2023-04-02T08:39:08.697Z,3.16
2023-04-02T08:40:08.716Z,3.05
2023-04-02T08:41:08.679Z,3.16
2023-04-02T08:42:08.703Z,3.15
2023-04-02T08:43:08.665Z,3.15
2023-04-02T08:44:08.645Z,3.20
2023-04-02T08:45:23.523Z,3.21
2023-04-02T08:46:08.684Z,3.10
2023-04-02T08:47:08.650Z,3.06
2023-04-02T08:48:08.654Z,3.09
2023-04-02T08:49:08.608Z,3.00
2023-04-02T08:50:08.608Z,2.87
2023-04-02T08:51:08.581Z,2.89
2023-04-02T08:52:08.585Z,2.92
2023-04-02T08:53:08.560Z,3.05
2023-04-02T08:54:08.567Z,3.23
2023-04-02T08:55:08.538Z,3.28
2023-04-02T08:56:08.572Z,3.16
2023-04-02T08:57:08.576Z,3.09
2023-04-02T08:58:08.509Z,3.12
2023-04-02T08:59:08.540Z,3.23
2023-04-02T09:00:08.479Z,3.24
2023-04-02T09:01:08.545Z,3.27
2023-04-02T09:02:08.483Z,3.27
2023-04-02T09:03:08.511Z,3.34
2023-04-02T09:04:08.449Z,3.39
2023-04-02T09:05:08.470Z,3.28
2023-04-02T09:06:08.449Z,3.34
2023-04-02T09:07:08.419Z,3.39
2023-04-02T09:08:08.406Z,3.28
2023-04-02T09:09:08.386Z,3.25
2023-04-02T09:10:08.380Z,3.30
2023-04-02T09:11:08.374Z,3.28
2023-04-02T09:12:08.381Z,3.24
2023-04-02T09:13:08.342Z,3.27
2023-04-02T09:14:08.339Z,3.27
2023-04-02T09:15:08.325Z,3.34
2023-04-02T09:16:08.378Z,3.31
2023-04-02T09:17:08.438Z,3.36
2023-04-02T09:18:08.339Z,3.25
2023-04-02T09:19:08.283Z,3.33
2023-04-02T09:20:08.281Z,3.39
2023-04-02T09:21:08.310Z,3.39
2023-04-02T09:22:08.279Z,3.44
2023-04-02T09:23:08.241Z,3.58
2023-04-02T09:24:08.260Z,3.67
2023-04-02T09:25:08.229Z,3.67
2023-04-02T09:26:08.250Z,3.82
2023-04-02T09:27:08.228Z,3.88
2023-04-02T09:28:08.202Z,4.03
2023-04-02T09:29:08.187Z,3.88
2023-04-02T09:30:08.191Z,3.75
2023-04-02T09:31:08.176Z,3.71
2023-04-02T09:32:08.183Z,3.88
2023-04-02T09:33:08.214Z,3.71
2023-04-02T09:34:08.136Z,3.80
2023-04-02T09:35:15.087Z,3.85
2023-04-02T09:36:08.210Z,3.88
2023-04-02T09:37:08.099Z,4.08
2023-04-02T09:38:08.099Z,4.16
2023-04-02T09:39:08.085Z,4.08
2023-04-02T09:40:08.080Z,3.98
2023-04-02T09:41:08.061Z,3.83
2023-04-02T09:42:08.084Z,3.86
2023-04-02T09:43:08.047Z,3.82
2023-04-02T09:44:08.040Z,3.89
2023-04-02T09:45:08.026Z,3.94
2023-04-02T09:46:08.013Z,4.18
2023-04-02T09:47:08.024Z,4.18
2023-04-02T09:48:08.022Z,4.29
2023-04-02T09:49:07.998Z,4.21
2023-04-02T09:50:07.971Z,4.12
2023-04-02T09:51:07.966Z,4.22
2023-04-02T09:52:07.971Z,4.34
2023-04-02T09:53:07.939Z,4.34
2023-04-02T09:54:07.940Z,4.37
2023-04-02T09:55:07.911Z,4.98
2023-04-02T09:56:07.918Z,5.32
2023-04-02T09:57:07.952Z,5.23
2023-04-02T09:58:07.906Z,5.83
2023-04-02T09:59:07.873Z,7.47
2023-04-02T10:00:10.327Z,8.33
2023-04-02T10:01:07.931Z,9.05
2023-04-02T10:02:07.850Z,9.58
2023-04-02T10:03:07.859Z,9.79
2023-04-02T10:04:07.863Z,8.81
2023-04-02T10:05:07.818Z,7.77
2023-04-02T10:06:07.860Z,7.40
2023-04-02T10:07:07.791Z,7.02
2023-04-02T10:08:07.826Z,6.66
2023-04-02T10:09:07.770Z,6.43
2023-04-02T10:10:07.760Z,7.05
2023-04-02T10:11:07.748Z,7.92
2023-04-02T10:12:07.754Z,7.50
2023-04-02T10:13:07.725Z,7.24
2023-04-02T10:14:07.725Z,6.90
2023-04-02T10:15:07.723Z,6.66
2023-04-02T10:16:07.790Z,6.14
2023-04-02T10:17:07.747Z,6.09
2023-04-02T10:18:07.721Z,6.22
2023-04-02T10:19:07.656Z,6.01
2023-04-02T10:20:07.654Z,5.92
2023-04-02T10:21:07.641Z,6.10
2023-04-02T10:22:07.632Z,6.25
2023-04-02T10:23:07.641Z,5.64
2023-04-02T10:24:07.620Z,5.50
2023-04-02T10:25:07.590Z,5.20
2023-04-02T10:26:07.600Z,4.92
2023-04-02T10:27:07.583Z,4.86
2023-04-02T10:28:07.620Z,4.77
2023-04-02T10:29:07.554Z,4.70
2023-04-02T10:30:07.554Z,4.79
2023-04-02T10:31:07.593Z,5.04
2023-04-02T10:32:07.534Z,5.07
2023-04-02T10:33:07.569Z,5.48
2023-04-02T10:34:07.502Z,5.23
2023-04-02T10:35:07.508Z,5.09
2023-04-02T10:36:07.503Z,5.01
2023-04-02T10:37:07.469Z,4.84
2023-04-02T10:38:07.504Z,5.49
2023-04-02T10:39:07.448Z,5.28
2023-04-02T10:40:07.458Z,5.55
2023-04-02T10:41:07.429Z,5.70
2023-04-02T10:42:07.420Z,5.66
2023-04-02T10:43:07.433Z,5.89
2023-04-02T10:44:19.061Z,5.95
2023-04-02T10:45:07.395Z,5.74
2023-04-02T10:46:07.399Z,5.74
2023-04-02T10:47:07.369Z,5.48
2023-04-02T10:48:07.417Z,5.31
2023-04-02T10:49:07.395Z,5.52
2023-04-02T10:50:07.338Z,5.75
2023-04-02T10:51:07.340Z,5.93
2023-04-02T10:52:07.311Z,5.74
2023-04-02T10:53:07.323Z,5.73
2023-04-02T10:54:07.297Z,5.98
2023-04-02T10:55:07.275Z,6.21
2023-04-02T10:56:07.274Z,6.07
2023-04-02T10:57:07.271Z,5.86
2023-04-02T10:58:07.295Z,5.43
2023-04-02T10:59:07.232Z,5.17
2023-04-02T11:00:07.239Z,4.98
2023-04-02T11:01:07.258Z,5.20
2023-04-02T11:02:07.210Z,5.19
2023-04-02T11:03:07.328Z,4.91
2023-04-02T11:04:07.188Z,4.98
2023-04-02T11:05:07.171Z,4.80
2023-04-02T11:06:07.172Z,4.88
2023-04-02T11:07:14.276Z,5.07
2023-04-02T11:08:07.174Z,5.02
2023-04-02T11:09:07.135Z,5.17
2023-04-02T11:10:07.123Z,5.27
2023-04-02T11:11:07.122Z,5.28
2023-04-02T11:12:07.118Z,5.34
2023-04-02T11:13:07.110Z,5.07
2023-04-02T11:14:07.089Z,5.02
2023-04-02T11:15:07.072Z,5.14
2023-04-02T11:16:07.125Z,4.99
2023-04-02T11:17:07.058Z,5.16
2023-04-02T11:18:07.059Z,5.10
2023-04-02T11:19:07.044Z,5.09
2023-04-02T11:20:07.026Z,5.16
2023-04-02T11:21:07.036Z,5.13
2023-04-02T11:22:07.150Z,5.09
2023-04-02T11:23:07.000Z,4.75
2023-04-02T11:24:06.986Z,4.64
2023-04-02T11:25:06.967Z,4.89
2023-04-02T11:26:06.960Z,5.09
2023-04-02T11:27:06.953Z,4.91
2023-04-02T11:28:06.956Z,4.91
2023-04-02T11:29:06.929Z,4.80
2023-04-02T11:30:06.999Z,4.83
2023-04-02T11:31:06.946Z,4.86
2023-04-02T11:32:06.899Z,4.99
2023-04-02T11:33:06.917Z,5.10
2023-04-02T11:34:06.897Z,5.02
2023-04-02T11:35:07.696Z,5.16
2023-04-02T11:36:06.912Z,5.32
2023-04-02T11:37:06.843Z,5.14
2023-04-02T11:38:06.859Z,5.09
2023-04-02T11:39:16.457Z,5.14
2023-04-02T11:40:06.873Z,5.16
2023-04-02T11:41:06.803Z,5.43
2023-04-02T11:42:06.792Z,5.63
2023-04-02T11:43:06.799Z,5.67
2023-04-02T11:44:06.790Z,5.67
2023-04-02T11:45:06.760Z,5.70
2023-04-02T11:46:06.764Z,5.66
2023-04-02T11:47:06.765Z,5.85
2023-04-02T11:48:06.799Z,6.00
2023-04-02T11:49:06.731Z,5.83
2023-04-02T11:50:06.716Z,5.55
2023-04-02T11:51:06.698Z,5.52
2023-04-02T11:52:12.335Z,5.59
2023-04-02T11:53:06.697Z,5.82
2023-04-02T11:54:06.674Z,5.81
2023-04-02T11:55:06.666Z,5.81
2023-04-02T11:56:06.658Z,5.60
2023-04-02T11:57:06.652Z,5.60
2023-04-02T11:58:06.656Z,5.53
2023-04-02T11:59:06.670Z,5.27
2023-04-02T12:00:06.665Z,5.40
2023-04-02T12:01:06.602Z,5.49
2023-04-02T12:02:06.716Z,5.34
2023-04-02T12:03:06.617Z,5.52
2023-04-02T12:04:06.576Z,5.41
2023-04-02T12:05:06.656Z,5.50
2023-04-02T12:06:06.568Z,5.73
2023-04-02T12:07:06.571Z,5.50
2023-04-02T12:08:06.554Z,5.64
2023-04-02T12:09:06.507Z,5.66
2023-04-02T12:10:06.506Z,5.91
2023-04-02T12:11:06.485Z,5.89
2023-04-02T12:12:06.479Z,6.07
2023-04-02T12:13:06.488Z,6.00
2023-04-02T12:14:06.465Z,6.04
2023-04-02T12:15:06.439Z,6.03
2023-04-02T12:16:06.445Z,6.10
2023-04-02T12:17:09.298Z,6.09
2023-04-02T12:18:06.483Z,6.04
2023-04-02T12:19:06.403Z,6.51
2023-04-02T12:20:06.394Z,6.28
2023-04-02T12:21:06.377Z,5.93
2023-04-02T12:22:06.394Z,5.82
2023-04-02T12:23:06.368Z,5.66
2023-04-02T12:24:06.355Z,5.63
2023-04-02T12:25:06.351Z,5.73
2023-04-02T12:26:06.326Z,5.85
2023-04-02T12:27:06.313Z,5.77
2023-04-02T12:28:06.336Z,5.67
2023-04-02T12:29:06.304Z,5.59
2023-04-02T12:30:06.286Z,5.66
2023-04-02T12:31:06.314Z,5.83
2023-04-02T12:32:06.258Z,5.64
2023-04-02T12:33:06.341Z,5.56
2023-04-02T12:34:06.238Z,5.64
2023-04-02T12:35:06.237Z,5.86
2023-04-02T12:36:06.225Z,5.92
2023-04-02T12:37:06.218Z,5.70
2023-04-02T12:38:06.226Z,5.49
2023-04-02T12:39:06.185Z,5.41
2023-04-02T12:40:06.179Z,5.46
2023-04-02T12:41:06.172Z,5.49
2023-04-02T12:42:06.166Z,5.75
2023-04-02T12:43:06.162Z,5.93
2023-04-02T12:44:06.136Z,5.95
2023-04-02T12:45:06.129Z,5.92
2023-04-02T12:46:06.198Z,6.01
2023-04-02T12:47:06.109Z,6.01
2023-04-02T12:48:06.183Z,6.13
2023-04-02T12:49:06.101Z,6.10
2023-04-02T12:50:06.134Z,6.16
2023-04-02T12:51:06.068Z,6.01
2023-04-02T12:52:06.055Z,5.98
2023-04-02T12:53:06.038Z,6.41
2023-04-02T12:54:06.028Z,6.41
2023-04-02T12:55:06.040Z,6.35
2023-04-02T12:56:06.003Z,6.30
2023-04-02T12:57:06.028Z,6.65
2023-04-02T12:58:05.992Z,6.56
2023-04-02T12:59:06.003Z,6.65
2023-04-02T13:00:06.153Z,6.65
2023-04-02T13:01:05.961Z,6.77
2023-04-02T13:02:06.077Z,6.63
2023-04-02T13:03:05.999Z,6.53
2023-04-02T13:04:05.959Z,6.33
2023-04-02T13:05:05.915Z,6.63
2023-04-02T13:06:05.908Z,6.69
2023-04-02T13:07:05.903Z,6.51
2023-04-02T13:08:05.910Z,6.50
2023-04-02T13:09:05.886Z,6.47
2023-04-02T13:10:05.931Z,6.32
2023-04-02T13:11:05.857Z,5.98
2023-04-02T13:12:05.855Z,5.96
2023-04-02T13:13:05.863Z,6.30
2023-04-02T13:14:05.817Z,6.63
2023-04-02T13:15:05.841Z,6.62
2023-04-02T13:16:05.849Z,6.36
2023-04-02T13:17:05.803Z,5.98
2023-04-02T13:18:05.862Z,5.88
2023-04-02T13:19:05.780Z,5.92